sensor_id;sensor_type;location;lat;lon;timestamp;pressure;altitude;pressure_sealevel;temperature;humidity
59513;BME280;45330;51.634;5.562;2023-05-17T00:02:19;102389.00;;;6.92;100.00
59513;BME280;45330;51.634;5.562;2023-05-17T00:04:44;102397.66;;;6.93;100.00
59513;BME280;45330;51.634;5.562;2023-05-17T00:07:10;102389.84;;;6.91;100.00
59513;BME280;45330;51.634;5.562;2023-05-17T00:09:35;102386.00;;;6.80;100.00
59513;BME280;45330;51.634;5.562;2023-05-17T00:12:01;102400.09;;;6.88;100.00
59513;BME280;45330;51.634;5.562;2023-05-17T00:14:26;102411.25;;;6.87;100.00
59513;BME280;45330;51.634;5.562;2023-05-17T00:16:52;102385.91;;;6.77;100.00
59513;BME280;45330;51.634;5.562;2023-05-17T00:19:17;102391.91;;;6.76;100.00
59513;BME280;45330;51.634;5.562;2023-05-17T00:21:43;102385.84;;;6.75;100.00
59513;BME280;45330;51.634;5.562;2023-05-17T00:24:08;102393.75;;;6.80;100.00
59513;BME280;45330;51.634;5.562;2023-05-17T00:26:34;102396.44;;;6.83;100.00
59513;BME280;45330;51.634;5.562;2023-05-17T00:28:59;102399.00;;;6.81;100.00
59513;BME280;45330;51.634;5.562;2023-05-17T00:31:25;102397.97;;;6.78;100.00
59513;BME280;45330;51.634;5.562;2023-05-17T00:33:50;102392.72;;;6.75;100.00
59513;BME280;45330;51.634;5.562;2023-05-17T00:36:16;102404.84;;;6.76;100.00
59513;BME280;45330;51.634;5.562;2023-05-17T00:38:41;102395.97;;;6.69;100.00
59513;BME280;45330;51.634;5.562;2023-05-17T00:41:06;102390.66;;;6.64;100.00
59513;BME280;45330;51.634;5.562;2023-05-17T00:43:32;102401.19;;;6.70;100.00
59513;BME280;45330;51.634;5.562;2023-05-17T00:45:57;102380.19;;;6.61;100.00
59513;BME280;45330;51.634;5.562;2023-05-17T00:48:23;102381.00;;;6.60;100.00
59513;BME280;45330;51.634;5.562;2023-05-17T00:50:52;102379.47;;;6.65;100.00
59513;BME280;45330;51.634;5.562;2023-05-17T00:53:18;102390.66;;;6.64;100.00
59513;BME280;45330;51.634;5.562;2023-05-17T00:55:44;102389.69;;;6.62;100.00
59513;BME280;45330;51.634;5.562;2023-05-17T00:58:12;102388.78;;;6.60;100.00
59513;BME280;45330;51.634;5.562;2023-05-17T01:00:38;102372.81;;;6.48;100.00
59513;BME280;45330;51.634;5.562;2023-05-17T01:03:04;102393.91;;;6.59;100.00
59513;BME280;45330;51.634;5.562;2023-05-17T01:05:29;102391.25;;;6.57;100.00
59513;BME280;45330;51.634;5.562;2023-05-17T01:07:55;102374.59;;;6.49;100.00
59513;BME280;45330;51.634;5.562;2023-05-17T01:10:29;102390.31;;;6.55;100.00
59513;BME280;45330;51.634;5.562;2023-05-17T01:13:08;102393.78;;;6.56;100.00
59513;BME280;45330;51.634;5.562;2023-05-17T01:15:42;102387.66;;;6.53;100.00
59513;BME280;45330;51.634;5.562;2023-05-17T01:18:37;102395.28;;;6.49;100.00
59513;BME280;45330;51.634;5.562;2023-05-17T01:21:16;102384.78;;;6.44;100.00
59513;BME280;45330;51.634;5.562;2023-05-17T01:23:54;102397.91;;;6.50;100.00
59513;BME280;45330;51.634;5.562;2023-05-17T01:26:38;102392.63;;;6.47;100.00
59513;BME280;45330;51.634;5.562;2023-05-17T01:29:07;102394.50;;;6.51;100.00
59513;BME280;45330;51.634;5.562;2023-05-17T01:31:37;102373.44;;;6.41;100.00
59513;BME280;45330;51.634;5.562;2023-05-17T01:34:09;102403.13;;;6.52;100.00
59513;BME280;45330;51.634;5.562;2023-05-17T01:36:35;102378.50;;;6.38;100.00
59513;BME280;45330;51.634;5.562;2023-05-17T01:39:01;102382.84;;;6.39;100.00
59513;BME280;45330;51.634;5.562;2023-05-17T01:41:39;102394.16;;;6.42;100.00
59513;BME280;45330;51.634;5.562;2023-05-17T01:44:24;102399.44;;;6.45;100.00
59513;BME280;45330;51.634;5.562;2023-05-17T01:46:56;102376.56;;;6.32;100.00
59513;BME280;45330;51.634;5.562;2023-05-17T01:49:29;102384.53;;;6.38;100.00
59513;BME280;45330;51.634;5.562;2023-05-17T01:52:12;102401.00;;;6.40;100.00
59513;BME280;45330;51.634;5.562;2023-05-17T01:54:55;102388.84;;;6.38;100.00
59513;BME280;45330;51.634;5.562;2023-05-17T01:57:29;102393.13;;;6.37;100.00
59513;BME280;45330;51.634;5.562;2023-05-17T01:59:58;102398.94;;;6.31;100.00
59513;BME280;45330;51.634;5.562;2023-05-17T02:02:24;102385.63;;;6.21;100.00
59513;BME280;45330;51.634;5.562;2023-05-17T02:04:50;102401.53;;;6.31;100.00
59513;BME280;45330;51.634;5.562;2023-05-17T02:07:15;102393.56;;;6.25;100.00
59513;BME280;45330;51.634;5.562;2023-05-17T02:09:41;102377.69;;;6.16;100.00
59513;BME280;45330;51.634;5.562;2023-05-17T02:12:06;102375.09;;;6.16;100.00
59513;BME280;45330;51.634;5.562;2023-05-17T02:14:32;102392.78;;;6.28;100.00
59513;BME280;45330;51.634;5.562;2023-05-17T02:16:57;102371.06;;;6.23;100.00
59513;BME280;45330;51.634;5.562;2023-05-17T02:19:22;102375.34;;;6.22;100.00
59513;BME280;45330;51.634;5.562;2023-05-17T02:21:48;102372.97;;;6.28;100.00
59513;BME280;45330;51.634;5.562;2023-05-17T02:24:13;102381.09;;;6.38;100.00
59513;BME280;45330;51.634;5.562;2023-05-17T02:26:38;102376.81;;;6.40;100.00
59513;BME280;45330;51.634;5.562;2023-05-17T02:29:07;102394.72;;;6.58;100.00
59513;BME280;45330;51.634;5.562;2023-05-17T02:31:33;102396.78;;;6.68;100.00
59513;BME280;45330;51.634;5.562;2023-05-17T02:33:58;102389.31;;;6.76;100.00
59513;BME280;45330;51.634;5.562;2023-05-17T02:36:24;102395.53;;;6.81;100.00
59513;BME280;45330;51.634;5.562;2023-05-17T02:38:49;102398.31;;;6.87;100.00
59513;BME280;45330;51.634;5.562;2023-05-17T02:41:14;102384.47;;;6.85;100.00
59513;BME280;45330;51.634;5.562;2023-05-17T02:43:40;102402.25;;;7.01;100.00
59513;BME280;45330;51.634;5.562;2023-05-17T02:46:05;102377.94;;;6.96;100.00
59513;BME280;45330;51.634;5.562;2023-05-17T02:48:31;102397.38;;;7.11;100.00
59513;BME280;45330;51.634;5.562;2023-05-17T02:50:56;102406.19;;;7.16;100.00
59513;BME280;45330;51.634;5.562;2023-05-17T02:53:21;102395.72;;;7.13;100.00
59513;BME280;45330;51.634;5.562;2023-05-17T02:55:47;102384.59;;;7.15;100.00
59513;BME280;45330;51.634;5.562;2023-05-17T02:58:12;102410.13;;;7.30;100.00
59513;BME280;45330;51.634;5.562;2023-05-17T03:00:37;102407.53;;;7.30;100.00
59513;BME280;45330;51.634;5.562;2023-05-17T03:03:03;102395.31;;;7.26;100.00
59513;BME280;45330;51.634;5.562;2023-05-17T03:05:28;102416.47;;;7.40;100.00
59513;BME280;45330;51.634;5.562;2023-05-17T03:07:53;102389.19;;;7.24;100.00
59513;BME280;45330;51.634;5.562;2023-05-17T03:10:19;102401.63;;;7.34;100.00
59513;BME280;45330;51.634;5.562;2023-05-17T03:12:44;102410.63;;;7.46;100.00
59513;BME280;45330;51.634;5.562;2023-05-17T03:15:10;102421.94;;;7.49;100.00
59513;BME280;45330;51.634;5.562;2023-05-17T03:17:36;102408.88;;;7.46;100.00
59513;BME280;45330;51.634;5.562;2023-05-17T03:20:01;102423.88;;;7.56;100.00
59513;BME280;45330;51.634;5.562;2023-05-17T03:22:26;102415.88;;;7.49;100.00
59513;BME280;45330;51.634;5.562;2023-05-17T03:24:52;102415.88;;;7.49;100.00
59513;BME280;45330;51.634;5.562;2023-05-17T03:27:17;102434.78;;;7.46;100.00
59513;BME280;45330;51.634;5.562;2023-05-17T03:29:43;102441.38;;;7.36;100.00
59513;BME280;45330;51.634;5.562;2023-05-17T03:32:08;102425.25;;;7.18;100.00
59513;BME280;45330;51.634;5.562;2023-05-17T03:34:33;102436.41;;;7.17;100.00
59513;BME280;45330;51.634;5.562;2023-05-17T03:37:00;102444.03;;;7.12;100.00
59513;BME280;45330;51.634;5.562;2023-05-17T03:39:25;102427.81;;;6.92;100.00
59513;BME280;45330;51.634;5.562;2023-05-17T03:41:51;102440.91;;;6.97;100.00
59513;BME280;45330;51.634;5.562;2023-05-17T03:44:16;102429.03;;;6.78;100.00
59513;BME280;45330;51.634;5.562;2023-05-17T03:46:41;102449.88;;;6.81;100.00
59513;BME280;45330;51.634;5.562;2023-05-17T03:49:07;102449.72;;;6.78;100.00
59513;BME280;45330;51.634;5.562;2023-05-17T03:51:32;102447.75;;;6.70;100.00
59513;BME280;45330;51.634;5.562;2023-05-17T03:53:59;102446.03;;;6.69;100.00
59513;BME280;45330;51.634;5.562;2023-05-17T03:56:25;102459.72;;;6.67;100.00
59513;BME280;45330;51.634;5.562;2023-05-17T03:58:51;102464.88;;;6.67;100.00
59513;BME280;45330;51.634;5.562;2023-05-17T04:01:16;102457.78;;;6.61;100.00
59513;BME280;45330;51.634;5.562;2023-05-17T04:03:42;102442.78;;;6.52;100.00
59513;BME280;45330;51.634;5.562;2023-05-17T04:06:07;102447.16;;;6.53;100.00
59513;BME280;45330;51.634;5.562;2023-05-17T04:08:33;102455.88;;;6.56;100.00
59513;BME280;45330;51.634;5.562;2023-05-17T04:10:59;102457.69;;;6.58;100.00
59513;BME280;45330;51.634;5.562;2023-05-17T04:13:34;102467.53;;;6.68;100.00
59513;BME280;45330;51.634;5.562;2023-05-17T04:15:59;102450.03;;;6.61;100.00
59513;BME280;45330;51.634;5.562;2023-05-17T04:18:24;102457.19;;;6.68;100.00
59513;BME280;45330;51.634;5.562;2023-05-17T04:20:50;102456.22;;;6.66;100.00
59513;BME280;45330;51.634;5.562;2023-05-17T04:23:15;102470.56;;;6.81;100.00
59513;BME280;45330;51.634;5.562;2023-05-17T04:25:40;102469.00;;;6.86;100.00
59513;BME280;45330;51.634;5.562;2023-05-17T04:28:06;102456.69;;;6.79;100.00
59513;BME280;45330;51.634;5.562;2023-05-17T04:30:31;102476.22;;;6.95;100.00
59513;BME280;45330;51.634;5.562;2023-05-17T04:32:57;102487.50;;;6.97;100.00
59513;BME280;45330;51.634;5.562;2023-05-17T04:35:22;102485.72;;;6.96;100.00
59513;BME280;45330;51.634;5.562;2023-05-17T04:37:48;102492.63;;;6.95;100.00
59513;BME280;45330;51.634;5.562;2023-05-17T04:40:13;102490.97;;;6.97;100.00
59513;BME280;45330;51.634;5.562;2023-05-17T04:42:39;102483.81;;;6.90;100.00
59513;BME280;45330;51.634;5.562;2023-05-17T04:45:05;102502.41;;;7.04;100.00
59513;BME280;45330;51.634;5.562;2023-05-17T04:47:30;102498.84;;;7.00;100.00
59513;BME280;45330;51.634;5.562;2023-05-17T04:49:56;102487.41;;;6.94;100.00
59513;BME280;45330;51.634;5.562;2023-05-17T04:52:21;102509.41;;;7.07;100.00
59513;BME280;45330;51.634;5.562;2023-05-17T04:54:47;102506.66;;;7.26;100.00
59513;BME280;45330;51.634;5.562;2023-05-17T04:57:12;102517.09;;;7.55;100.00
59513;BME280;45330;51.634;5.562;2023-05-17T04:59:37;102505.38;;;8.21;100.00
59513;BME280;45330;51.634;5.562;2023-05-17T05:02:03;102508.09;;;8.83;100.00
59513;BME280;45330;51.634;5.562;2023-05-17T05:04:29;102500.88;;;9.73;100.00
59513;BME280;45330;51.634;5.562;2023-05-17T05:06:54;102520.63;;;10.82;100.00
59513;BME280;45330;51.634;5.562;2023-05-17T05:09:20;102508.50;;;11.84;100.00
59513;BME280;45330;51.634;5.562;2023-05-17T05:11:45;102531.63;;;12.82;100.00
59513;BME280;45330;51.634;5.562;2023-05-17T05:14:10;102524.63;;;13.64;100.00
59513;BME280;45330;51.634;5.562;2023-05-17T05:16:36;102533.78;;;14.26;100.00
59513;BME280;45330;51.634;5.562;2023-05-17T05:19:01;102537.53;;;14.71;100.00
59513;BME280;45330;51.634;5.562;2023-05-17T05:21:26;102524.50;;;15.01;100.00
59513;BME280;45330;51.634;5.562;2023-05-17T05:23:52;102544.66;;;15.48;100.00
59513;BME280;45330;51.634;5.562;2023-05-17T05:26:17;102530.56;;;14.78;100.00
59513;BME280;45330;51.634;5.562;2023-05-17T05:28:42;102534.09;;;14.97;100.00
59513;BME280;45330;51.634;5.562;2023-05-17T05:31:08;102547.31;;;15.60;100.00
59513;BME280;45330;51.634;5.562;2023-05-17T05:33:33;102559.56;;;15.97;100.00
59513;BME280;45330;51.634;5.562;2023-05-17T05:35:59;102556.03;;;16.20;100.00
59513;BME280;45330;51.634;5.562;2023-05-17T05:38:24;102556.81;;;16.56;93.76
59513;BME280;45330;51.634;5.562;2023-05-17T05:40:49;102554.06;;;16.84;91.17
59513;BME280;45330;51.634;5.562;2023-05-17T05:43:15;102558.28;;;17.22;84.73
59513;BME280;45330;51.634;5.562;2023-05-17T05:45:40;102545.28;;;16.88;84.75
59513;BME280;45330;51.634;5.562;2023-05-17T05:48:11;102566.09;;;17.31;77.89
59513;BME280;45330;51.634;5.562;2023-05-17T05:50:37;102558.47;;;16.78;78.59
59513;BME280;45330;51.634;5.562;2023-05-17T05:53:02;102561.09;;;16.80;80.36
59513;BME280;45330;51.634;5.562;2023-05-17T05:55:27;102581.06;;;17.20;77.14
59513;BME280;45330;51.634;5.562;2023-05-17T05:57:53;102574.00;;;17.34;74.33
59513;BME280;45330;51.634;5.562;2023-05-17T06:00:18;102586.00;;;17.69;72.84
59513;BME280;45330;51.634;5.562;2023-05-17T06:02:44;102572.84;;;17.67;69.69
59513;BME280;45330;51.634;5.562;2023-05-17T06:05:09;102595.94;;;17.27;69.73
59513;BME280;45330;51.634;5.562;2023-05-17T06:07:35;102589.72;;;17.40;67.71
59513;BME280;45330;51.634;5.562;2023-05-17T06:10:00;102585.28;;;17.50;65.70
59513;BME280;45330;51.634;5.562;2023-05-17T06:12:26;102598.25;;;17.73;66.05
59513;BME280;45330;51.634;5.562;2023-05-17T06:14:51;102600.22;;;17.43;66.37
59513;BME280;45330;51.634;5.562;2023-05-17T06:17:16;102604.00;;;16.91;66.04
59513;BME280;45330;51.634;5.562;2023-05-17T06:19:42;102611.97;;;16.67;67.01
59513;BME280;45330;51.634;5.562;2023-05-17T06:22:07;102605.72;;;17.03;66.36
59513;BME280;45330;51.634;5.562;2023-05-17T06:24:32;102617.00;;;17.30;65.88
59513;BME280;45330;51.634;5.562;2023-05-17T06:26:58;102605.25;;;17.76;64.44
59513;BME280;45330;51.634;5.562;2023-05-17T06:29:23;102619.94;;;18.08;61.61
59513;BME280;45330;51.634;5.562;2023-05-17T06:31:48;102620.44;;;17.40;60.18
59513;BME280;45330;51.634;5.562;2023-05-17T06:34:14;102623.44;;;16.38;62.32
59513;BME280;45330;51.634;5.562;2023-05-17T06:36:39;102612.09;;;16.11;62.29
59513;BME280;45330;51.634;5.562;2023-05-17T06:39:05;102626.81;;;15.18;64.52
59513;BME280;45330;51.634;5.562;2023-05-17T06:41:30;102613.50;;;14.73;68.60
59513;BME280;45330;51.634;5.562;2023-05-17T06:43:55;102620.69;;;13.79;70.61
59513;BME280;45330;51.634;5.562;2023-05-17T06:46:21;102625.09;;;13.04;77.16
59513;BME280;45330;51.634;5.562;2023-05-17T06:48:46;102618.50;;;12.67;80.11
59513;BME280;45330;51.634;5.562;2023-05-17T06:51:14;102611.19;;;12.43;82.43
59513;BME280;45330;51.634;5.562;2023-05-17T06:53:40;102620.66;;;12.36;87.97
59513;BME280;45330;51.634;5.562;2023-05-17T06:56:06;102604.38;;;11.96;83.53
59513;BME280;45330;51.634;5.562;2023-05-17T06:58:31;102625.50;;;12.11;89.65
59513;BME280;45330;51.634;5.562;2023-05-17T07:00:56;102617.69;;;12.11;87.34
59513;BME280;45330;51.634;5.562;2023-05-17T07:03:22;102609.63;;;11.97;85.94
59513;BME280;45330;51.634;5.562;2023-05-17T07:05:47;102622.69;;;11.99;86.72
59513;BME280;45330;51.634;5.562;2023-05-17T07:08:12;102619.28;;;12.03;89.33
59513;BME280;45330;51.634;5.562;2023-05-17T07:10:39;102626.81;;;12.38;88.04
59513;BME280;45330;51.634;5.562;2023-05-17T07:13:05;102630.59;;;12.59;82.95
59513;BME280;45330;51.634;5.562;2023-05-17T07:15:30;102630.88;;;12.80;82.53
59513;BME280;45330;51.634;5.562;2023-05-17T07:17:55;102637.91;;;12.84;81.73
59513;BME280;45330;51.634;5.562;2023-05-17T07:20:21;102637.00;;;12.82;79.90
59513;BME280;45330;51.634;5.562;2023-05-17T07:22:46;102628.16;;;12.73;79.11
59513;BME280;45330;51.634;5.562;2023-05-17T07:25:12;102643.00;;;12.75;82.65
59513;BME280;45330;51.634;5.562;2023-05-17T07:27:39;102649.00;;;12.68;80.52
59513;BME280;45330;51.634;5.562;2023-05-17T07:30:05;102649.56;;;12.47;80.38
59513;BME280;45330;51.634;5.562;2023-05-17T07:32:31;102651.25;;;12.43;82.41
59513;BME280;45330;51.634;5.562;2023-05-17T07:34:56;102650.50;;;12.52;83.32
59513;BME280;45330;51.634;5.562;2023-05-17T07:37:22;102656.75;;;12.62;81.07
59513;BME280;45330;51.634;5.562;2023-05-17T07:39:47;102658.09;;;12.98;79.49
59513;BME280;45330;51.634;5.562;2023-05-17T07:42:12;102655.81;;;13.23;75.16
59513;BME280;45330;51.634;5.562;2023-05-17T07:44:38;102639.00;;;13.05;74.45
59513;BME280;45330;51.634;5.562;2023-05-17T07:47:03;102657.47;;;13.17;74.95
59513;BME280;45330;51.634;5.562;2023-05-17T07:49:29;102644.09;;;12.93;75.63
59513;BME280;45330;51.634;5.562;2023-05-17T07:51:54;102649.41;;;13.00;76.41
59513;BME280;45330;51.634;5.562;2023-05-17T07:54:24;102648.59;;;13.03;76.36
59513;BME280;45330;51.634;5.562;2023-05-17T07:56:51;102672.31;;;13.20;73.71
59513;BME280;45330;51.634;5.562;2023-05-17T07:59:19;102668.34;;;12.84;74.10
59513;BME280;45330;51.634;5.562;2023-05-17T08:01:45;102651.41;;;12.54;74.20
59513;BME280;45330;51.634;5.562;2023-05-17T08:04:10;102674.69;;;12.40;73.25
59513;BME280;45330;51.634;5.562;2023-05-17T08:06:36;102662.50;;;12.39;75.89
59513;BME280;45330;51.634;5.562;2023-05-17T08:09:01;102667.97;;;12.56;74.73
59513;BME280;45330;51.634;5.562;2023-05-17T08:11:27;102673.78;;;12.38;76.60
59513;BME280;45330;51.634;5.562;2023-05-17T08:13:52;102660.94;;;11.97;75.76
59513;BME280;45330;51.634;5.562;2023-05-17T08:16:17;102677.50;;;12.00;75.64
59513;BME280;45330;51.634;5.562;2023-05-17T08:18:43;102658.50;;;12.08;75.85
59513;BME280;45330;51.634;5.562;2023-05-17T08:21:08;102675.88;;;12.61;74.08
59513;BME280;45330;51.634;5.562;2023-05-17T08:23:35;102669.47;;;13.00;71.94
59513;BME280;45330;51.634;5.562;2023-05-17T08:26:00;102679.63;;;13.46;67.43
59513;BME280;45330;51.634;5.562;2023-05-17T08:28:26;102685.25;;;13.81;67.81
59513;BME280;45330;51.634;5.562;2023-05-17T08:30:51;102682.16;;;14.27;66.69
59513;BME280;45330;51.634;5.562;2023-05-17T08:33:16;102648.09;;;14.26;63.47
59513;BME280;45330;51.634;5.562;2023-05-17T08:35:45;102675.06;;;14.14;63.97
59513;BME280;45330;51.634;5.562;2023-05-17T08:38:10;102680.06;;;13.86;64.93
59513;BME280;45330;51.634;5.562;2023-05-17T08:40:35;102671.84;;;13.50;65.29
59513;BME280;45330;51.634;5.562;2023-05-17T08:43:01;102657.41;;;13.11;66.61
59513;BME280;45330;51.634;5.562;2023-05-17T08:45:27;102683.41;;;13.02;65.57
59513;BME280;45330;51.634;5.562;2023-05-17T08:47:55;102680.59;;;12.88;65.74
59513;BME280;45330;51.634;5.562;2023-05-17T08:50:20;102662.38;;;12.91;63.03
59513;BME280;45330;51.634;5.562;2023-05-17T08:52:46;102682.91;;;13.31;61.46
59513;BME280;45330;51.634;5.562;2023-05-17T08:55:12;102678.16;;;13.71;61.64
59513;BME280;45330;51.634;5.562;2023-05-17T08:57:41;102686.31;;;14.03;60.22
59513;BME280;45330;51.634;5.562;2023-05-17T09:00:07;102676.59;;;13.90;60.65
59513;BME280;45330;51.634;5.562;2023-05-17T09:02:37;102684.38;;;13.82;61.74
59513;BME280;45330;51.634;5.562;2023-05-17T09:05:02;102695.63;;;13.72;62.78
59513;BME280;45330;51.634;5.562;2023-05-17T09:07:29;102692.03;;;13.64;60.26
59513;BME280;45330;51.634;5.562;2023-05-17T09:09:54;102674.69;;;13.73;61.44
59513;BME280;45330;51.634;5.562;2023-05-17T09:12:20;102700.19;;;13.95;59.17
59513;BME280;45330;51.634;5.562;2023-05-17T09:14:47;102695.81;;;13.92;57.13
59513;BME280;45330;51.634;5.562;2023-05-17T09:17:15;102683.53;;;13.85;58.54
59513;BME280;45330;51.634;5.562;2023-05-17T09:19:45;102689.00;;;14.08;59.52
59513;BME280;45330;51.634;5.562;2023-05-17T09:22:17;102677.56;;;13.97;60.12
59513;BME280;45330;51.634;5.562;2023-05-17T09:24:43;102695.34;;;14.36;57.69
59513;BME280;45330;51.634;5.562;2023-05-17T09:27:14;102679.75;;;14.58;58.29
59513;BME280;45330;51.634;5.562;2023-05-17T09:29:43;102691.03;;;14.45;58.04
59513;BME280;45330;51.634;5.562;2023-05-17T09:32:17;102671.78;;;14.41;57.96
59513;BME280;45330;51.634;5.562;2023-05-17T09:34:44;102698.81;;;14.38;57.86
59513;BME280;45330;51.634;5.562;2023-05-17T09:37:18;102706.66;;;14.32;58.56
59513;BME280;45330;51.634;5.562;2023-05-17T09:39:45;102681.97;;;14.02;59.87
59513;BME280;45330;51.634;5.562;2023-05-17T09:42:12;102678.69;;;14.28;60.73
59513;BME280;45330;51.634;5.562;2023-05-17T09:44:49;102669.16;;;14.41;60.26
59513;BME280;45330;51.634;5.562;2023-05-17T09:47:26;102678.66;;;14.25;60.37
59513;BME280;45330;51.634;5.562;2023-05-17T09:49:54;102692.56;;;14.16;61.83
59513;BME280;45330;51.634;5.562;2023-05-17T09:52:20;102691.53;;;14.03;61.24
59513;BME280;45330;51.634;5.562;2023-05-17T09:54:58;102668.75;;;13.92;60.73
59513;BME280;45330;51.634;5.562;2023-05-17T09:57:35;102689.56;;;13.76;61.70
59513;BME280;45330;51.634;5.562;2023-05-17T10:00:01;102686.09;;;13.77;59.96
59513;BME280;45330;51.634;5.562;2023-05-17T10:02:30;102688.84;;;13.91;60.61
59513;BME280;45330;51.634;5.562;2023-05-17T10:04:57;102697.66;;;14.02;57.64
59513;BME280;45330;51.634;5.562;2023-05-17T10:07:24;102680.22;;;14.04;56.56
59513;BME280;45330;51.634;5.562;2023-05-17T10:09:51;102671.63;;;14.19;57.71
59513;BME280;45330;51.634;5.562;2023-05-17T10:12:20;102663.84;;;14.29;56.38
59513;BME280;45330;51.634;5.562;2023-05-17T10:14:47;102687.41;;;14.29;52.79
59513;BME280;45330;51.634;5.562;2023-05-17T10:17:13;102692.63;;;14.27;53.46
59513;BME280;45330;51.634;5.562;2023-05-17T10:19:40;102702.25;;;14.30;54.29
59513;BME280;45330;51.634;5.562;2023-05-17T10:22:06;102671.84;;;14.47;54.28
59513;BME280;45330;51.634;5.562;2023-05-17T10:24:33;102692.13;;;14.70;53.60
59513;BME280;45330;51.634;5.562;2023-05-17T10:27:01;102693.63;;;14.41;52.88
59513;BME280;45330;51.634;5.562;2023-05-17T10:29:27;102686.63;;;14.39;53.21
59513;BME280;45330;51.634;5.562;2023-05-17T10:31:53;102675.31;;;14.41;52.57
59513;BME280;45330;51.634;5.562;2023-05-17T10:34:19;102677.88;;;14.37;51.95
59513;BME280;45330;51.634;5.562;2023-05-17T10:36:48;102684.78;;;14.29;50.39
59513;BME280;45330;51.634;5.562;2023-05-17T10:39:13;102675.91;;;14.10;51.78
59513;BME280;45330;51.634;5.562;2023-05-17T10:41:43;102686.50;;;14.22;53.75
59513;BME280;45330;51.634;5.562;2023-05-17T10:44:13;102678.69;;;14.31;52.82
59513;BME280;45330;51.634;5.562;2023-05-17T10:46:39;102684.84;;;14.32;51.85
59513;BME280;45330;51.634;5.562;2023-05-17T10:49:04;102673.66;;;14.59;51.05
59513;BME280;45330;51.634;5.562;2023-05-17T10:51:35;102669.38;;;14.69;51.30
59513;BME280;45330;51.634;5.562;2023-05-17T10:56:29;102674.63;;;14.69;51.37
59513;BME280;45330;51.634;5.562;2023-05-17T10:59:33;102667.63;;;14.68;53.56
59513;BME280;45330;51.634;5.562;2023-05-17T11:02:07;102664.00;;;14.47;55.23
59513;BME280;45330;51.634;5.562;2023-05-17T11:04:39;102656.91;;;14.34;53.57
59513;BME280;45330;51.634;5.562;2023-05-17T11:09:49;102664.66;;;14.21;51.22
59513;BME280;45330;51.634;5.562;2023-05-17T11:12:15;102648.09;;;14.24;51.75
59513;BME280;45330;51.634;5.562;2023-05-17T11:19:54;102641.97;;;14.20;52.44
59513;BME280;45330;51.634;5.562;2023-05-17T11:22:28;102679.53;;;14.29;51.11
59513;BME280;45330;51.634;5.562;2023-05-17T11:25:00;102670.84;;;14.30;50.30
59513;BME280;45330;51.634;5.562;2023-05-17T11:27:27;102664.72;;;14.28;49.02
59513;BME280;45330;51.634;5.562;2023-05-17T11:30:06;102666.53;;;14.39;49.00
59513;BME280;45330;51.634;5.562;2023-05-17T11:32:33;102658.53;;;14.16;49.64
59513;BME280;45330;51.634;5.562;2023-05-17T11:34:59;102664.72;;;14.29;49.34
59513;BME280;45330;51.634;5.562;2023-05-17T11:37:26;102656.06;;;14.41;51.17
59513;BME280;45330;51.634;5.562;2023-05-17T11:40:05;102669.25;;;14.53;50.39
59513;BME280;45330;51.634;5.562;2023-05-17T11:42:33;102646.44;;;14.37;51.15
59513;BME280;45330;51.634;5.562;2023-05-17T11:45:00;102654.38;;;14.45;52.85
59513;BME280;45330;51.634;5.562;2023-05-17T11:47:27;102678.69;;;14.30;50.10
59513;BME280;45330;51.634;5.562;2023-05-17T11:49:59;102655.91;;;14.16;50.65
59513;BME280;45330;51.634;5.562;2023-05-17T11:52:26;102675.97;;;14.17;50.21
59513;BME280;45330;51.634;5.562;2023-05-17T11:54:52;102663.72;;;14.13;50.02
59513;BME280;45330;51.634;5.562;2023-05-17T11:57:18;102672.53;;;14.24;48.10
59513;BME280;45330;51.634;5.562;2023-05-17T11:59:45;102670.03;;;14.40;50.06
59513;BME280;45330;51.634;5.562;2023-05-17T12:02:25;102650.75;;;14.30;48.53
59513;BME280;45330;51.634;5.562;2023-05-17T12:04:51;102646.50;;;14.43;50.05
59513;BME280;45330;51.634;5.562;2023-05-17T12:07:16;102646.44;;;14.37;49.22
59513;BME280;45330;51.634;5.562;2023-05-17T12:09:49;102650.72;;;14.24;48.91
59513;BME280;45330;51.634;5.562;2023-05-17T12:12:15;102669.13;;;14.32;46.61
59513;BME280;45330;51.634;5.562;2023-05-17T12:14:44;102663.00;;;14.34;46.83
59513;BME280;45330;51.634;5.562;2023-05-17T12:17:12;102648.13;;;14.30;49.21
59513;BME280;45330;51.634;5.562;2023-05-17T12:19:40;102663.09;;;14.50;48.36
59513;BME280;45330;51.634;5.562;2023-05-17T12:22:07;102665.72;;;14.50;47.37
59513;BME280;45330;51.634;5.562;2023-05-17T12:24:51;102648.19;;;14.38;46.93
59513;BME280;45330;51.634;5.562;2023-05-17T12:27:24;102641.16;;;14.31;48.07
59513;BME280;45330;51.634;5.562;2023-05-17T12:29:50;102661.41;;;14.52;47.02
59513;BME280;45330;51.634;5.562;2023-05-17T12:32:16;102642.13;;;14.47;46.06
59513;BME280;45330;51.634;5.562;2023-05-17T12:34:41;102666.75;;;14.64;47.47
59513;BME280;45330;51.634;5.562;2023-05-17T12:37:07;102660.53;;;14.54;46.86
59513;BME280;45330;51.634;5.562;2023-05-17T12:39:34;102655.31;;;14.56;46.90
59513;BME280;45330;51.634;5.562;2023-05-17T12:42:00;102653.69;;;14.75;48.68
59513;BME280;45330;51.634;5.562;2023-05-17T12:44:26;102637.97;;;14.72;48.93
59513;BME280;45330;51.634;5.562;2023-05-17T12:46:53;102653.75;;;14.80;47.69
59513;BME280;45330;51.634;5.562;2023-05-17T12:49:20;102646.69;;;14.71;47.55
59513;BME280;45330;51.634;5.562;2023-05-17T12:51:46;102658.00;;;14.62;48.66
59513;BME280;45330;51.634;5.562;2023-05-17T12:54:32;102657.84;;;14.47;47.68
59513;BME280;45330;51.634;5.562;2023-05-17T12:57:08;102639.53;;;14.47;48.09
59513;BME280;45330;51.634;5.562;2023-05-17T12:59:45;102654.44;;;14.57;48.59
59513;BME280;45330;51.634;5.562;2023-05-17T13:02:10;102634.38;;;14.59;48.96